KSQI

Whiteside Co Arpt-Jos H Bittorf Field Airport

Sterling/Rockfalls, Illinois, USA
METAR KSQI 190856Z AUTO 08006KT 6SM BR CLR 17/17 A3000 RMK AO2 SLP174 6//// T01720167 55000 PNO $
Observed Flight Rules
Sep-19 @ 08:56 UTC (23 minutes ago) Visual Flight Rules
Wind Visibility Clouds Conditions
80° at 6 knots 6 miles
  • Clear skies
  • Mist
Temperatures Readings
Current 17°C / 63°F
Dewpoint 17°C / 63°F
Humidity 100%
Altimeter 30" Hg
Pressure 1017.4 hPa
Elevation 197
METAR KSQI 190856Z AUTO 08006KT 6SM BR CLR 17/17 A3000 RMK AO2 SLP174 6//// T01720167 55000 PNO $
Observed Flight Rules
Sep-19 @ 08:56 UTC
(23 minutes ago)
VFR
Wind Visibility
80° at 6 knots 6 miles
Clouds
  • Clear skies
Conditions
  • Mist
Temperature Dewpoint
17°C / 63°F 17°C / 63°F
Humidity Altimeter Pressure
100% 30" Hg 1017.4 hPa